X  Fermer Données météorologiques d'aviation de Metar     EHRD Rotterdam The Hague Airport
Température
20°C Température
17°C Point de rosée
83% Humidité



Vent
4 M/S
8 MPH
13 KM/H
7 KTS



280°
O
Conditions actuelles

Partiellement nuageux Partiellement nuageux
Pression 1014.9 (hPa) - 29.97 (inHg)
Visibilité 6 (mile) - 9.7 (km)
Aéroport
Code de l'aéroport EHRD

Emplacement: Rotterdam The Hague Airport
Distance: 23 (km)

Metar:
EHRD 231025Z AUTO 28007KT 240V320 9999 FEW012 FEW015CB BKN016 OVC020 20/17 Q1015 TEMPO 6000 SHRA BKN012 FEW020CB

Temps: 23-07-2024 12:25 CEST